createdAt,value
2018-10-19T00:00:10.666Z,0.00
2018-10-19T00:01:10.656Z,0.00
2018-10-19T00:02:10.618Z,0.00
2018-10-19T00:03:10.637Z,0.00
2018-10-19T00:04:10.573Z,0.00
2018-10-19T00:05:10.662Z,0.00
2018-10-19T00:06:10.534Z,0.00
2018-10-19T00:07:10.514Z,0.00
2018-10-19T00:08:10.488Z,0.00
2018-10-19T00:09:10.510Z,0.00
2018-10-19T00:10:10.440Z,0.00
2018-10-19T00:11:10.498Z,0.00
2018-10-19T00:12:10.406Z,0.00
2018-10-19T00:13:10.377Z,0.00
2018-10-19T00:14:10.360Z,0.00
2018-10-19T00:15:10.469Z,0.00
2018-10-19T00:16:10.309Z,0.00
2018-10-19T00:17:10.349Z,0.00
2018-10-19T00:18:10.268Z,0.00
2018-10-19T00:19:10.246Z,0.00
2018-10-19T00:20:10.223Z,0.00
2018-10-19T00:21:10.292Z,0.00
2018-10-19T00:22:10.181Z,0.00
2018-10-19T00:23:10.163Z,0.00
2018-10-19T00:24:10.140Z,0.00
2018-10-19T00:25:10.118Z,0.00
2018-10-19T00:26:10.092Z,0.00
2018-10-19T00:27:10.185Z,0.00
2018-10-19T00:28:10.057Z,0.00
2018-10-19T00:29:10.085Z,0.00
2018-10-19T00:30:10.009Z,0.00
2018-10-19T00:31:09.987Z,0.00
2018-10-19T00:32:09.961Z,0.00
2018-10-19T00:33:10.010Z,0.00
2018-10-19T00:34:09.919Z,0.00
2018-10-19T00:35:10.021Z,0.00
2018-10-19T00:36:09.878Z,0.00
2018-10-19T00:37:09.850Z,0.00
2018-10-19T00:38:09.837Z,0.00
2018-10-19T00:39:10.051Z,0.00
2018-10-19T00:40:09.866Z,0.00
2018-10-19T00:41:09.919Z,0.00
2018-10-19T00:42:09.740Z,0.00
2018-10-19T00:43:09.715Z,0.00
2018-10-19T00:44:09.741Z,0.00
2018-10-19T00:45:09.748Z,0.00
2018-10-19T00:46:09.658Z,0.00
2018-10-19T00:47:09.675Z,0.00
2018-10-19T00:48:09.614Z,0.00
2018-10-19T00:49:09.585Z,0.00
2018-10-19T00:50:09.566Z,0.00
2018-10-19T00:51:09.603Z,0.00
2018-10-19T00:52:09.518Z,0.00
2018-10-19T00:53:09.523Z,0.00
2018-10-19T00:54:09.485Z,0.00
2018-10-19T00:55:09.459Z,0.00
2018-10-19T00:56:09.430Z,0.00
2018-10-19T00:57:09.482Z,0.00
2018-10-19T00:58:09.389Z,0.00
2018-10-19T00:59:09.467Z,0.00
2018-10-19T01:00:09.347Z,0.00
2018-10-19T01:01:09.321Z,0.00
2018-10-19T01:02:09.298Z,0.00
2018-10-19T01:03:09.374Z,0.00
2018-10-19T01:04:09.259Z,0.00
2018-10-19T01:05:09.292Z,0.00
2018-10-19T01:06:09.214Z,0.00
2018-10-19T01:07:09.194Z,0.00
2018-10-19T01:08:09.168Z,0.00
2018-10-19T01:09:09.152Z,0.00
2018-10-19T01:10:09.125Z,0.00
2018-10-19T01:11:09.226Z,0.00
2018-10-19T01:12:09.071Z,0.00
2018-10-19T01:13:09.053Z,0.00
2018-10-19T01:14:09.030Z,0.00
2018-10-19T01:15:09.032Z,0.00
2018-10-19T01:16:08.995Z,0.00
2018-10-19T01:17:08.982Z,0.00
2018-10-19T01:18:08.947Z,0.00
2018-10-19T01:19:08.918Z,0.00
2018-10-19T01:20:08.899Z,0.00
2018-10-19T01:21:08.901Z,0.00
2018-10-19T01:22:08.850Z,0.00
2018-10-19T01:23:08.922Z,0.00
2018-10-19T01:24:08.814Z,0.00
2018-10-19T01:25:08.795Z,0.00
2018-10-19T01:26:08.769Z,0.00
2018-10-19T01:27:08.769Z,0.00
2018-10-19T01:28:08.726Z,0.00
2018-10-19T01:29:08.800Z,0.00
2018-10-19T01:30:08.683Z,0.00
2018-10-19T01:31:08.654Z,0.00
2018-10-19T01:32:08.659Z,0.00
2018-10-19T01:33:08.697Z,0.00
2018-10-19T01:34:08.589Z,0.00
2018-10-19T01:35:08.595Z,0.00
2018-10-19T01:36:08.548Z,0.00
2018-10-19T01:37:08.521Z,0.00
2018-10-19T01:38:08.500Z,0.00
2018-10-19T01:39:08.577Z,0.00
2018-10-19T01:40:08.456Z,0.00
2018-10-19T01:41:08.441Z,0.00
2018-10-19T01:42:08.414Z,0.00
2018-10-19T01:43:08.392Z,0.00
2018-10-19T01:44:08.366Z,0.00
2018-10-19T01:45:08.433Z,0.00
2018-10-19T01:46:08.328Z,0.00
2018-10-19T01:47:08.363Z,0.00
2018-10-19T01:48:08.291Z,0.00
2018-10-19T01:49:08.260Z,0.00
2018-10-19T01:50:08.231Z,0.00
2018-10-19T01:51:08.250Z,0.00
2018-10-19T01:52:08.189Z,0.00
2018-10-19T01:53:08.179Z,0.00
2018-10-19T01:54:08.148Z,0.00
2018-10-19T01:55:08.128Z,0.00
2018-10-19T01:56:08.108Z,0.00
2018-10-19T01:57:08.112Z,0.00
2018-10-19T01:58:08.063Z,0.00
2018-10-19T01:59:08.060Z,0.00
2018-10-19T02:00:08.022Z,0.00
2018-10-19T02:01:07.999Z,0.00
2018-10-19T02:02:07.970Z,0.00
2018-10-19T02:03:07.967Z,0.00
2018-10-19T02:04:07.932Z,0.00
2018-10-19T02:05:07.960Z,0.00
2018-10-19T02:06:07.880Z,0.00
2018-10-19T02:07:07.862Z,0.00
2018-10-19T02:08:07.839Z,0.00
2018-10-19T02:09:07.893Z,0.00
2018-10-19T02:10:07.797Z,0.00
2018-10-19T02:11:07.806Z,0.00
2018-10-19T02:12:07.750Z,0.00
2018-10-19T02:13:07.740Z,0.00
2018-10-19T02:14:09.307Z,0.00
2018-10-19T02:15:07.711Z,0.00
2018-10-19T02:16:07.669Z,0.00
2018-10-19T02:17:07.687Z,0.00
2018-10-19T02:18:07.625Z,0.00
2018-10-19T02:19:07.597Z,0.00
2018-10-19T02:20:07.580Z,0.00
2018-10-19T02:21:07.573Z,0.00
2018-10-19T02:22:07.533Z,0.00
2018-10-19T02:23:07.564Z,0.00
2018-10-19T02:24:07.493Z,0.00
2018-10-19T02:25:07.482Z,0.00
2018-10-19T02:26:07.443Z,0.00
2018-10-19T02:27:07.469Z,0.00
2018-10-19T02:28:07.404Z,0.00
2018-10-19T02:29:07.442Z,0.00
2018-10-19T02:30:07.364Z,0.00
2018-10-19T02:31:07.354Z,0.00
2018-10-19T02:32:07.321Z,0.00
2018-10-19T02:33:07.303Z,0.00
2018-10-19T02:34:07.281Z,0.00
2018-10-19T02:35:07.306Z,0.00
2018-10-19T02:36:07.236Z,0.00
2018-10-19T02:37:07.212Z,0.00
2018-10-19T02:38:07.199Z,0.00
2018-10-19T02:39:07.183Z,0.00
2018-10-19T02:40:07.150Z,0.00
2018-10-19T02:41:07.154Z,0.00
2018-10-19T02:42:07.103Z,0.00
2018-10-19T02:43:07.081Z,0.00
2018-10-19T02:44:07.066Z,0.00
2018-10-19T02:45:07.122Z,0.00
2018-10-19T02:46:07.017Z,0.00
2018-10-19T02:47:07.017Z,0.00
2018-10-19T02:48:06.976Z,0.00
2018-10-19T02:49:06.959Z,0.00
2018-10-19T02:50:06.941Z,0.00
2018-10-19T02:51:06.979Z,0.00
2018-10-19T02:52:06.903Z,0.00
2018-10-19T02:53:06.978Z,0.00
2018-10-19T02:54:06.852Z,0.00
2018-10-19T02:55:06.837Z,0.00
2018-10-19T02:56:06.827Z,0.00
2018-10-19T02:57:06.864Z,0.00
2018-10-19T02:58:06.776Z,0.00
2018-10-19T02:59:06.796Z,0.00
2018-10-19T03:00:06.734Z,0.00
2018-10-19T03:01:06.712Z,0.00
2018-10-19T03:02:06.682Z,0.00
2018-10-19T03:03:06.680Z,0.00
2018-10-19T03:04:06.648Z,0.00
2018-10-19T03:05:06.625Z,0.00
2018-10-19T03:06:06.602Z,0.00
2018-10-19T03:07:06.581Z,0.00
2018-10-19T03:08:06.564Z,0.00
2018-10-19T03:09:06.637Z,0.00
2018-10-19T03:10:06.516Z,0.00
2018-10-19T03:11:06.544Z,0.00
2018-10-19T03:12:06.482Z,0.00
2018-10-19T03:13:06.457Z,0.00
2018-10-19T03:14:06.438Z,0.00
2018-10-19T03:15:06.523Z,0.00
2018-10-19T03:16:06.397Z,0.00
2018-10-19T03:17:06.436Z,0.00
2018-10-19T03:18:06.352Z,0.00
2018-10-19T03:19:06.335Z,0.00
2018-10-19T03:20:06.313Z,0.00
2018-10-19T03:21:06.351Z,0.00
2018-10-19T03:22:06.272Z,0.00
2018-10-19T03:23:06.255Z,0.00
2018-10-19T03:24:06.228Z,0.00
2018-10-19T03:25:06.241Z,0.00
2018-10-19T03:26:06.193Z,0.00
2018-10-19T03:27:06.235Z,0.00
2018-10-19T03:28:06.152Z,0.00
2018-10-19T03:29:06.133Z,0.00
2018-10-19T03:30:06.102Z,0.00
2018-10-19T03:31:06.161Z,0.00
2018-10-19T03:32:06.057Z,0.00
2018-10-19T03:33:06.126Z,0.00
2018-10-19T03:34:06.026Z,0.00
2018-10-19T03:35:06.047Z,0.00
2018-10-19T03:36:05.970Z,0.00
2018-10-19T03:37:05.947Z,0.00
2018-10-19T03:38:05.939Z,0.00
2018-10-19T03:39:05.969Z,0.00
2018-10-19T03:40:05.905Z,0.00
2018-10-19T03:41:05.951Z,0.00
2018-10-19T03:42:05.841Z,0.00
2018-10-19T03:43:05.821Z,0.00
2018-10-19T03:44:05.807Z,0.00
2018-10-19T03:45:05.880Z,0.00
2018-10-19T03:46:05.761Z,0.00
2018-10-19T03:47:05.831Z,0.00
2018-10-19T03:48:05.715Z,0.00
2018-10-19T03:49:05.737Z,0.00
2018-10-19T03:50:05.670Z,0.00
2018-10-19T03:51:05.731Z,0.00
2018-10-19T03:52:05.635Z,0.00
2018-10-19T03:53:05.669Z,0.00
2018-10-19T03:54:05.590Z,0.00
2018-10-19T03:55:05.570Z,0.00
2018-10-19T03:56:05.555Z,0.00
2018-10-19T03:57:05.543Z,0.00
2018-10-19T03:58:05.507Z,0.00
2018-10-19T03:59:05.505Z,0.00
2018-10-19T04:00:05.459Z,0.00
2018-10-19T04:01:05.447Z,0.00
2018-10-19T04:02:05.423Z,0.00
2018-10-19T04:03:05.450Z,0.00
2018-10-19T04:04:05.382Z,0.00
2018-10-19T04:05:05.375Z,0.00
2018-10-19T04:06:05.354Z,0.00
2018-10-19T04:07:05.331Z,0.00
2018-10-19T04:08:05.297Z,0.00
2018-10-19T04:09:05.328Z,0.00
2018-10-19T04:10:05.258Z,0.00
2018-10-19T04:11:05.260Z,0.00
2018-10-19T04:12:05.229Z,0.00
2018-10-19T04:13:05.201Z,0.00
2018-10-19T04:14:05.175Z,0.00
2018-10-19T04:15:05.187Z,0.00
2018-10-19T04:16:05.127Z,0.00
2018-10-19T04:17:05.141Z,0.00
2018-10-19T04:18:05.096Z,0.00
2018-10-19T04:19:05.080Z,0.00
2018-10-19T04:20:05.043Z,0.00
2018-10-19T04:21:05.095Z,0.00
2018-10-19T04:22:04.997Z,0.00
2018-10-19T04:23:05.033Z,0.00
2018-10-19T04:24:04.975Z,0.00
2018-10-19T04:25:04.936Z,0.00
2018-10-19T04:26:04.911Z,0.00
2018-10-19T04:27:04.985Z,0.00
2018-10-19T04:28:04.870Z,0.00
2018-10-19T04:29:04.875Z,0.00
2018-10-19T04:30:04.832Z,0.00
2018-10-19T04:31:04.810Z,0.00
2018-10-19T04:32:04.795Z,0.00
2018-10-19T04:33:04.817Z,0.00
2018-10-19T04:34:04.748Z,0.00
2018-10-19T04:35:04.785Z,0.00
2018-10-19T04:36:04.702Z,0.00
2018-10-19T04:37:04.705Z,0.00
2018-10-19T04:38:04.660Z,0.00
2018-10-19T04:39:04.719Z,0.00
2018-10-19T04:40:04.615Z,0.00
2018-10-19T04:41:04.615Z,0.00
2018-10-19T04:42:04.752Z,0.00
2018-10-19T04:43:04.558Z,0.00
2018-10-19T04:44:04.532Z,0.00
2018-10-19T04:45:04.520Z,0.00
2018-10-19T04:46:04.492Z,0.00
2018-10-19T04:47:04.532Z,0.00
2018-10-19T04:48:04.441Z,0.00
2018-10-19T04:49:04.418Z,0.00
2018-10-19T04:50:04.415Z,0.00
2018-10-19T04:51:04.388Z,0.00
2018-10-19T04:52:04.357Z,0.00
2018-10-19T04:53:04.395Z,0.00
2018-10-19T04:54:04.315Z,0.00
2018-10-19T04:55:04.295Z,0.00
2018-10-19T04:56:04.273Z,0.00
2018-10-19T04:57:04.264Z,0.00
2018-10-19T04:58:04.225Z,0.00
2018-10-19T04:59:04.293Z,0.00
2018-10-19T05:00:04.187Z,0.00
2018-10-19T05:01:04.158Z,0.00
2018-10-19T05:02:04.155Z,0.00
2018-10-19T05:03:04.179Z,0.00
2018-10-19T05:04:04.108Z,0.00
2018-10-19T05:05:04.090Z,0.00
2018-10-19T05:06:04.173Z,0.00
2018-10-19T05:07:04.038Z,0.00
2018-10-19T05:08:04.070Z,0.00
2018-10-19T05:09:03.987Z,0.00
2018-10-19T05:10:03.967Z,0.00
2018-10-19T05:11:03.986Z,0.00
2018-10-19T05:12:03.923Z,0.00
2018-10-19T05:13:03.968Z,0.00
2018-10-19T05:14:03.892Z,0.00
2018-10-19T05:15:03.856Z,0.00
2018-10-19T05:16:03.846Z,0.00
2018-10-19T05:17:03.852Z,0.00
2018-10-19T05:18:03.798Z,0.00
2018-10-19T05:19:03.770Z,0.00
2018-10-19T05:20:03.798Z,0.00
2018-10-19T05:21:03.728Z,0.00
2018-10-19T05:22:03.709Z,0.00
2018-10-19T05:23:03.725Z,0.00
2018-10-19T05:24:03.667Z,0.00
2018-10-19T05:25:03.641Z,0.00
2018-10-19T05:26:03.683Z,0.00
2018-10-19T05:27:03.596Z,0.00
2018-10-19T05:28:03.577Z,0.00
2018-10-19T05:29:03.614Z,0.00
2018-10-19T05:30:03.539Z,0.00
2018-10-19T05:31:03.517Z,0.00
2018-10-19T05:32:03.511Z,0.00
2018-10-19T05:33:03.566Z,0.00
2018-10-19T05:34:03.455Z,0.00
2018-10-19T05:35:03.473Z,0.00
2018-10-19T05:36:03.416Z,0.00
2018-10-19T05:37:03.391Z,0.00
2018-10-19T05:38:03.452Z,0.00
2018-10-19T05:39:03.346Z,0.00
2018-10-19T05:40:03.327Z,0.00
2018-10-19T05:41:03.371Z,0.00
2018-10-19T05:42:03.280Z,0.00
2018-10-19T05:43:03.256Z,0.00
2018-10-19T05:44:03.258Z,0.00
2018-10-19T05:45:03.216Z,5.63
2018-10-19T05:46:03.197Z,5.63
2018-10-19T05:47:03.227Z,5.63
2018-10-19T05:48:03.156Z,5.63
2018-10-19T05:49:03.131Z,5.63
2018-10-19T05:50:03.166Z,5.63
2018-10-19T05:51:03.089Z,11.25
2018-10-19T05:52:03.115Z,11.25
2018-10-19T05:53:03.109Z,11.25
2018-10-19T05:54:03.021Z,11.25
2018-10-19T05:55:03.022Z,16.88
2018-10-19T05:56:03.013Z,16.88
2018-10-19T05:57:02.958Z,16.88
2018-10-19T05:58:02.942Z,16.88
2018-10-19T05:59:02.947Z,22.50
2018-10-19T06:00:02.900Z,22.50
2018-10-19T06:01:02.878Z,22.50
2018-10-19T06:02:02.959Z,28.13
2018-10-19T06:03:02.833Z,28.13
2018-10-19T06:04:02.810Z,28.13
2018-10-19T06:05:02.854Z,33.75
2018-10-19T06:06:02.769Z,33.75
2018-10-19T06:07:02.747Z,33.75
2018-10-19T06:08:02.749Z,39.38
2018-10-19T06:09:02.706Z,39.38
2018-10-19T06:10:02.690Z,39.38
2018-10-19T06:11:02.719Z,45.00
2018-10-19T06:12:02.645Z,45.00
2018-10-19T06:13:02.616Z,45.00
2018-10-19T06:14:02.651Z,50.63
2018-10-19T06:15:02.581Z,50.63
2018-10-19T06:16:02.555Z,56.25
2018-10-19T06:17:02.543Z,56.25
2018-10-19T06:18:02.515Z,56.25
2018-10-19T06:19:02.493Z,61.88
2018-10-19T06:20:02.519Z,61.88
2018-10-19T06:21:02.517Z,61.88
2018-10-19T06:22:02.432Z,67.50
2018-10-19T06:23:02.418Z,67.50
2018-10-19T06:24:02.378Z,73.13
2018-10-19T06:25:02.365Z,73.13
2018-10-19T06:26:02.435Z,73.13
2018-10-19T06:27:02.328Z,78.75
2018-10-19T06:28:02.299Z,78.75
2018-10-19T06:29:02.344Z,84.38
2018-10-19T06:30:02.255Z,84.38
2018-10-19T06:31:02.226Z,90.00
2018-10-19T06:32:02.285Z,90.00
2018-10-19T06:33:02.183Z,90.00
2018-10-19T06:34:02.177Z,95.63
2018-10-19T06:35:02.221Z,95.63
2018-10-19T06:36:02.123Z,95.63
2018-10-19T06:37:02.095Z,101.25
2018-10-19T06:38:02.138Z,101.25
2018-10-19T06:39:02.056Z,106.88
2018-10-19T06:40:02.032Z,106.88
2018-10-19T06:41:02.061Z,106.88
2018-10-19T06:42:01.986Z,112.50
2018-10-19T06:43:01.967Z,112.50
2018-10-19T06:44:02.080Z,118.13
2018-10-19T06:45:01.932Z,118.13
2018-10-19T06:46:01.899Z,118.13
2018-10-19T06:47:01.898Z,123.75
2018-10-19T06:48:01.869Z,123.75
2018-10-19T06:49:01.931Z,129.38
2018-10-19T06:50:01.842Z,129.38
2018-10-19T06:51:01.800Z,129.38
2018-10-19T06:52:01.778Z,135.00
2018-10-19T06:53:01.781Z,135.00
2018-10-19T06:54:01.752Z,135.00
2018-10-19T06:55:01.707Z,140.63
2018-10-19T06:56:01.761Z,140.63
2018-10-19T06:57:01.662Z,140.63
2018-10-19T06:58:01.655Z,146.25
2018-10-19T06:59:01.755Z,146.25
2018-10-19T07:00:01.604Z,151.88
2018-10-19T07:01:01.585Z,151.88
2018-10-19T07:02:01.627Z,157.50
2018-10-19T07:03:01.540Z,157.50
2018-10-19T07:04:01.527Z,163.13
2018-10-19T07:05:01.560Z,163.13
2018-10-19T07:06:01.500Z,163.13
2018-10-19T07:07:01.453Z,163.13
2018-10-19T07:08:01.521Z,163.13
2018-10-19T07:09:01.410Z,163.13
2018-10-19T07:10:01.388Z,168.75
2018-10-19T07:11:01.382Z,168.75
2018-10-19T07:12:01.383Z,168.75
2018-10-19T07:13:01.322Z,174.38
2018-10-19T07:14:01.359Z,174.38
2018-10-19T07:15:01.291Z,180.00
2018-10-19T07:16:01.292Z,180.00
2018-10-19T07:17:01.250Z,185.63
2018-10-19T07:18:01.219Z,185.63
2018-10-19T07:19:01.267Z,185.63
2018-10-19T07:20:01.240Z,191.25
2018-10-19T07:21:01.152Z,191.25
2018-10-19T07:22:01.132Z,196.88
2018-10-19T07:23:01.202Z,196.88
2018-10-19T07:24:01.100Z,196.88
2018-10-19T07:25:01.068Z,196.88
2018-10-19T07:26:01.103Z,202.50
2018-10-19T07:27:01.027Z,202.50
2018-10-19T07:28:01.014Z,202.50
2018-10-19T07:29:01.041Z,208.13
2018-10-19T07:30:00.965Z,208.13
2018-10-19T07:31:00.950Z,213.75
2018-10-19T07:32:00.990Z,213.75
2018-10-19T07:33:00.913Z,213.75
2018-10-19T07:34:00.881Z,219.38
2018-10-19T07:35:00.881Z,219.38
2018-10-19T07:36:00.855Z,225.00
2018-10-19T07:37:00.820Z,225.00
2018-10-19T07:38:00.860Z,236.25
2018-10-19T07:39:00.782Z,230.63
2018-10-19T07:40:00.766Z,241.88
2018-10-19T07:41:00.774Z,236.25
2018-10-19T07:42:00.798Z,241.88
2018-10-19T07:43:00.699Z,241.88
2018-10-19T07:44:00.719Z,241.88
2018-10-19T07:45:00.660Z,241.88
2018-10-19T07:46:00.642Z,241.88
2018-10-19T07:47:00.674Z,247.50
2018-10-19T07:48:00.825Z,247.50
2018-10-19T07:49:00.587Z,253.13
2018-10-19T07:50:00.585Z,253.13
2018-10-19T07:51:00.549Z,253.13
2018-10-19T07:52:00.523Z,253.13
2018-10-19T07:53:00.528Z,253.13
2018-10-19T07:54:00.538Z,258.75
2018-10-19T07:55:00.466Z,264.38
2018-10-19T07:56:00.483Z,264.38
2018-10-19T07:57:00.438Z,270.00
2018-10-19T07:58:00.414Z,275.63
2018-10-19T07:59:00.438Z,281.25
2018-10-19T08:00:00.376Z,286.88
2018-10-19T08:01:00.363Z,286.88
2018-10-19T08:02:00.374Z,292.50
2018-10-19T08:03:00.313Z,292.50
2018-10-19T08:04:00.297Z,292.50
2018-10-19T08:05:00.320Z,292.50
2018-10-19T08:06:00.259Z,292.50
2018-10-19T08:07:00.243Z,298.13
2018-10-19T08:08:00.279Z,298.13
2018-10-19T08:09:00.211Z,298.13
2018-10-19T08:10:00.195Z,303.75
2018-10-19T08:11:00.176Z,303.75
2018-10-19T08:12:00.156Z,309.38
2018-10-19T08:13:00.143Z,315.00
2018-10-19T08:14:00.146Z,320.63
2018-10-19T08:15:00.109Z,326.25
2018-10-19T08:16:00.087Z,331.88
2018-10-19T08:17:00.101Z,331.88
2018-10-19T08:18:00.052Z,331.88
2018-10-19T08:19:00.036Z,337.50
2018-10-19T08:20:00.033Z,337.50
2018-10-19T08:21:00.003Z,343.13
2018-10-19T08:21:59.982Z,343.13
2018-10-19T08:23:00.002Z,354.38
2018-10-19T08:23:59.945Z,348.75
2018-10-19T08:24:59.930Z,354.38
2018-10-19T08:25:59.938Z,354.38
2018-10-19T08:26:59.893Z,354.38
2018-10-19T08:27:59.882Z,360.00
2018-10-19T08:28:59.889Z,360.00
2018-10-19T08:29:59.865Z,360.00
2018-10-19T08:30:59.826Z,365.63
2018-10-19T08:31:59.827Z,365.63
2018-10-19T08:32:59.798Z,371.25
2018-10-19T08:33:59.778Z,376.88
2018-10-19T08:34:59.815Z,376.88
2018-10-19T08:35:59.752Z,376.88
2018-10-19T08:36:59.734Z,382.50
2018-10-19T08:37:59.794Z,382.50
2018-10-19T08:38:59.705Z,388.13
2018-10-19T08:39:59.689Z,388.13
2018-10-19T08:40:59.695Z,393.75
2018-10-19T08:41:59.660Z,393.75
2018-10-19T08:42:59.681Z,393.75
2018-10-19T08:43:59.622Z,393.75
2018-10-19T08:44:59.616Z,399.38
2018-10-19T08:45:59.590Z,393.75
2018-10-19T08:46:59.645Z,393.75
2018-10-19T08:47:59.562Z,405.00
2018-10-19T08:48:59.582Z,410.63
2018-10-19T08:49:59.529Z,405.00
2018-10-19T08:50:59.544Z,410.63
2018-10-19T08:51:59.497Z,410.63
2018-10-19T08:52:59.555Z,405.00
2018-10-19T08:53:59.478Z,410.63
2018-10-19T08:54:59.471Z,399.38
2018-10-19T08:55:59.445Z,405.00
2018-10-19T08:56:59.481Z,421.88
2018-10-19T08:57:59.594Z,421.88
2018-10-19T08:58:59.399Z,421.88
2018-10-19T08:59:59.395Z,421.88
2018-10-19T09:00:59.379Z,421.88
2018-10-19T09:01:59.359Z,427.50
2018-10-19T09:02:59.342Z,427.50
2018-10-19T09:03:59.369Z,433.13
2018-10-19T09:04:59.344Z,433.13
2018-10-19T09:05:59.316Z,433.13
2018-10-19T09:06:59.284Z,433.13
2018-10-19T09:07:59.268Z,438.75
2018-10-19T09:08:59.257Z,438.75
2018-10-19T09:09:59.233Z,438.75
2018-10-19T09:10:59.342Z,444.38
2018-10-19T09:11:59.211Z,444.38
2018-10-19T09:12:59.201Z,444.38
2018-10-19T09:13:59.175Z,450.00
2018-10-19T09:14:59.177Z,450.00
2018-10-19T09:15:59.156Z,450.00
2018-10-19T09:16:59.203Z,450.00
2018-10-19T09:17:59.127Z,444.38
2018-10-19T09:18:59.114Z,444.38
2018-10-19T09:19:59.098Z,438.75
2018-10-19T09:20:59.096Z,455.63
2018-10-19T09:21:59.073Z,455.63
2018-10-19T09:22:59.056Z,450.00
2018-10-19T09:23:59.041Z,450.00
2018-10-19T09:24:59.028Z,450.00
2018-10-19T09:25:59.012Z,450.00
2018-10-19T09:26:59.054Z,444.38
2018-10-19T09:27:58.997Z,444.38
2018-10-19T09:28:58.983Z,450.00
2018-10-19T09:29:58.958Z,450.00
2018-10-19T09:30:58.948Z,461.25
2018-10-19T09:31:58.938Z,421.88
2018-10-19T09:32:58.919Z,466.88
2018-10-19T09:33:58.903Z,466.88
2018-10-19T09:34:58.936Z,489.38
2018-10-19T09:35:58.955Z,511.88
2018-10-19T09:36:58.936Z,511.88
2018-10-19T09:37:58.849Z,523.13
2018-10-19T09:38:58.847Z,545.63
2018-10-19T09:39:58.862Z,545.63
2018-10-19T09:40:58.832Z,517.50
2018-10-19T09:41:58.814Z,551.25
2018-10-19T09:42:58.794Z,556.88
2018-10-19T09:43:58.778Z,562.50
2018-10-19T09:44:58.779Z,590.63
2018-10-19T09:45:58.743Z,601.88
2018-10-19T09:46:58.773Z,585.00
2018-10-19T09:47:58.724Z,624.38
2018-10-19T09:48:58.732Z,618.75
2018-10-19T09:49:58.711Z,607.50
2018-10-19T09:50:58.723Z,618.75
2018-10-19T09:51:58.682Z,652.50
2018-10-19T09:52:58.711Z,686.25
2018-10-19T09:53:58.653Z,731.25
2018-10-19T09:54:58.707Z,720.00
2018-10-19T09:55:58.655Z,691.88
2018-10-19T09:56:58.658Z,686.25
2018-10-19T09:57:58.602Z,714.38
2018-10-19T09:58:58.623Z,686.25
2018-10-19T09:59:58.573Z,669.38
2018-10-19T10:00:58.604Z,691.88
2018-10-19T10:01:58.571Z,675.00
2018-10-19T10:02:58.565Z,646.88
2018-10-19T10:03:58.535Z,663.75
2018-10-19T10:04:58.534Z,658.13
2018-10-19T10:05:58.507Z,669.38
2018-10-19T10:06:58.506Z,562.50
2018-10-19T10:07:58.540Z,630.00
2018-10-19T10:08:58.501Z,652.50
2018-10-19T10:09:58.475Z,663.75
2018-10-19T10:10:58.457Z,652.50
2018-10-19T10:11:58.447Z,646.88
2018-10-19T10:12:58.428Z,658.13
2018-10-19T10:13:58.409Z,635.63
2018-10-19T10:14:58.423Z,618.75
2018-10-19T10:15:58.386Z,607.50
2018-10-19T10:16:58.433Z,618.75
2018-10-19T10:17:58.360Z,613.13
2018-10-19T10:18:58.355Z,618.75
2018-10-19T10:19:58.338Z,618.75
2018-10-19T10:20:58.333Z,607.50
2018-10-19T10:21:58.364Z,596.25
2018-10-19T10:22:58.303Z,585.00
2018-10-19T10:23:58.294Z,579.38
2018-10-19T10:24:58.425Z,562.50
2018-10-19T10:25:58.277Z,562.50
2018-10-19T10:26:58.265Z,540.00
2018-10-19T10:27:58.254Z,540.00
2018-10-19T10:28:58.236Z,545.63
2018-10-19T10:29:58.233Z,562.50
2018-10-19T10:30:58.218Z,579.38
2018-10-19T10:31:58.215Z,573.75
2018-10-19T10:32:58.197Z,573.75
2018-10-19T10:33:58.242Z,579.38
2018-10-19T10:34:58.175Z,607.50
2018-10-19T10:35:58.194Z,624.38
2018-10-19T10:36:58.188Z,652.50
2018-10-19T10:37:58.136Z,680.63
2018-10-19T10:38:58.179Z,720.00
2018-10-19T10:39:58.142Z,748.13
2018-10-19T10:40:58.102Z,753.75
2018-10-19T10:41:58.098Z,759.38
2018-10-19T10:42:58.096Z,765.00
2018-10-19T10:43:58.080Z,748.13
2018-10-19T10:44:58.066Z,748.13
2018-10-19T10:45:58.069Z,765.00
2018-10-19T10:46:58.093Z,787.50
2018-10-19T10:47:58.028Z,781.88
2018-10-19T10:48:58.110Z,776.25
2018-10-19T10:49:58.016Z,770.63
2018-10-19T10:50:57.999Z,781.88
2018-10-19T10:51:58.000Z,781.88
2018-10-19T10:52:57.980Z,781.88
2018-10-19T10:53:57.971Z,781.88
2018-10-19T10:54:57.963Z,770.63
2018-10-19T10:55:57.954Z,765.00
2018-10-19T10:56:57.945Z,759.38
2018-10-19T10:57:57.989Z,781.88
2018-10-19T10:58:57.929Z,787.50
2018-10-19T10:59:57.923Z,793.13
2018-10-19T11:00:57.959Z,798.75
2018-10-19T11:01:57.912Z,798.75
2018-10-19T11:02:57.888Z,787.50
2018-10-19T11:03:57.939Z,787.50
2018-10-19T11:04:57.886Z,804.38
2018-10-19T11:05:57.862Z,815.63
2018-10-19T11:06:57.884Z,815.63
2018-10-19T11:07:57.847Z,810.00
2018-10-19T11:08:57.832Z,832.50
2018-10-19T11:09:57.867Z,855.00
2018-10-19T11:10:57.824Z,866.25
2018-10-19T11:11:57.808Z,871.88
2018-10-19T11:12:57.831Z,883.13
2018-10-19T11:13:57.795Z,883.13
2018-10-19T11:14:57.792Z,888.75
2018-10-19T11:15:57.790Z,883.13
2018-10-19T11:16:57.779Z,894.38
2018-10-19T11:17:57.757Z,905.63
2018-10-19T11:18:57.778Z,928.13
2018-10-19T11:19:57.744Z,928.13
2018-10-19T11:20:57.741Z,922.50
2018-10-19T11:21:57.740Z,939.38
2018-10-19T11:22:57.721Z,961.88
2018-10-19T11:23:57.729Z,973.13
2018-10-19T11:24:57.753Z,978.75
2018-10-19T11:25:57.700Z,978.75
2018-10-19T11:26:57.691Z,978.75
2018-10-19T11:27:57.703Z,967.50
2018-10-19T11:28:57.675Z,973.13
2018-10-19T11:29:57.669Z,984.38
2018-10-19T11:30:57.706Z,973.13
2018-10-19T11:31:57.649Z,995.63
2018-10-19T11:32:57.642Z,1012.50
2018-10-19T11:33:57.691Z,1001.25
2018-10-19T11:34:57.627Z,1040.63
2018-10-19T11:35:57.630Z,1035.00
2018-10-19T11:36:57.652Z,990.00
2018-10-19T11:37:57.647Z,978.75
2018-10-19T11:38:57.597Z,995.63
2018-10-19T11:39:57.625Z,978.75
2018-10-19T11:40:57.586Z,995.63
2018-10-19T11:41:57.578Z,1035.00
2018-10-19T11:42:57.610Z,1035.00
2018-10-19T11:43:57.564Z,1040.63
2018-10-19T11:44:57.556Z,1057.50
2018-10-19T11:45:57.596Z,1074.38
2018-10-19T11:46:57.547Z,1063.13
2018-10-19T11:47:57.540Z,1068.75
2018-10-19T11:48:57.589Z,1057.50
2018-10-19T11:49:57.518Z,1046.25
2018-10-19T11:50:57.514Z,1113.75
2018-10-19T11:51:57.531Z,1108.13
2018-10-19T11:52:57.507Z,1074.38
2018-10-19T11:53:57.496Z,1074.38
2018-10-19T11:54:57.571Z,916.88
2018-10-19T11:55:57.491Z,922.50
2018-10-19T11:56:57.488Z,956.25
2018-10-19T11:57:57.489Z,905.63
2018-10-19T11:58:57.459Z,1029.38
2018-10-19T11:59:57.459Z,1063.13
2018-10-19T12:00:57.464Z,1057.50
2018-10-19T12:01:57.453Z,1035.00
2018-10-19T12:02:57.439Z,956.25
2018-10-19T12:03:57.444Z,1012.50
2018-10-19T12:04:57.414Z,1012.50
2018-10-19T12:05:57.409Z,1029.38
2018-10-19T12:06:57.464Z,866.25
2018-10-19T12:07:57.398Z,1029.38
2018-10-19T12:08:57.395Z,1023.75
2018-10-19T12:09:57.395Z,933.75
2018-10-19T12:10:57.381Z,1147.50
2018-10-19T12:11:57.370Z,1113.75
2018-10-19T12:12:57.436Z,1091.25
2018-10-19T12:13:57.369Z,990.00
2018-10-19T12:14:57.403Z,798.75
2018-10-19T12:15:57.358Z,804.38
2018-10-19T12:16:57.472Z,798.75
2018-10-19T12:17:57.325Z,826.88
2018-10-19T12:18:57.345Z,787.50
2018-10-19T12:19:57.316Z,776.25
2018-10-19T12:20:57.341Z,810.00
2018-10-19T12:21:57.306Z,748.13
2018-10-19T12:22:57.294Z,731.25
2018-10-19T12:23:57.287Z,753.75
2018-10-19T12:24:57.325Z,787.50
2018-10-19T12:25:57.331Z,821.25
2018-10-19T12:26:57.263Z,860.63
2018-10-19T12:27:57.255Z,855.00
2018-10-19T12:28:57.242Z,1051.88
2018-10-19T12:29:57.233Z,973.13
2018-10-19T12:30:57.242Z,973.13
2018-10-19T12:31:57.217Z,995.63
2018-10-19T12:32:57.213Z,956.25
2018-10-19T12:33:57.201Z,1001.25
2018-10-19T12:34:57.201Z,967.50
2018-10-19T12:35:57.182Z,1035.00
2018-10-19T12:36:57.185Z,1141.88
2018-10-19T12:37:57.169Z,1220.63
2018-10-19T12:38:57.204Z,1141.88
2018-10-19T12:39:57.163Z,1096.88
2018-10-19T12:40:57.198Z,1158.75
2018-10-19T12:41:57.127Z,1164.38
2018-10-19T12:42:57.153Z,1057.50
2018-10-19T12:43:57.114Z,928.13
2018-10-19T12:44:57.158Z,798.75
2018-10-19T12:45:57.099Z,787.50
2018-10-19T12:46:57.092Z,770.63
2018-10-19T12:47:57.085Z,748.13
2018-10-19T12:48:57.084Z,765.00
2018-10-19T12:49:57.063Z,849.38